LOWG/GRZ METAR and TAF weather

Enter ICAO airport designator
Station Type Date Time Source
LOWG METAR 2020/04/07 15:50 UTC NOAA

LOWG 071550Z AUTO 14008KT 9999 NCD 17/M04 Q1031


Station Type Date Time Source
LOWG Decoded METAR 2020/04/07 15:50 UTC NOAA

Graz-Thalerhof-Flughafen, Austria (LOWG) 47-00N 015-26E 347M
Apr 07, 2020 - 11:50 AM EDT / 2020.04.07 1550 UTC
Wind: from the SE (140 degrees) at 9 MPH (8 KT):0
Visibility: greater than 7 mile(s):0
Temperature: 62 F (17 C)
Dew Point: 24 F (-4 C)
Relative Humidity: 23%
Pressure (altimeter): 30.45 in. Hg (1031 hPa)
ob: LOWG 071550Z AUTO 14008KT 9999 NCD 17/M04 Q1031
cycle: 16

Station Type Date Time Source
LOWG TAF 2020/04/07 12:21 UTC NOAA

TAF TAF LOWG 071115Z 0712/0812 16006KT CAVOK TX18/0812Z TNM01/0806Z

Example: see airport list